createdAt,value
2018-08-23T00:02:41.054Z,2.47
2018-08-23T00:05:08.621Z,2.53
2018-08-23T00:07:36.226Z,2.50
2018-08-23T00:10:03.962Z,3.13
2018-08-23T00:12:44.080Z,2.80
2018-08-23T00:15:13.592Z,2.63
2018-08-23T00:17:45.015Z,2.50
2018-08-23T00:20:14.306Z,2.57
2018-08-23T00:22:42.069Z,2.73
2018-08-23T00:25:09.776Z,2.90
2018-08-23T00:27:37.681Z,2.70
2018-08-23T00:30:08.442Z,2.80
2018-08-23T00:32:36.286Z,2.70
2018-08-23T00:35:03.869Z,2.80
2018-08-23T00:37:31.505Z,2.97
2018-08-23T00:40:04.105Z,2.80
2018-08-23T00:42:31.651Z,2.67
2018-08-23T00:45:01.212Z,2.40
2018-08-23T00:47:29.738Z,2.67
2018-08-23T00:49:57.399Z,3.13
2018-08-23T00:52:40.024Z,2.70
2018-08-23T00:55:21.694Z,2.70
2018-08-23T00:57:50.012Z,2.67
2018-08-23T01:00:20.180Z,2.27
2018-08-23T01:02:49.278Z,2.80
2018-08-23T01:05:22.835Z,2.47
2018-08-23T01:07:50.757Z,2.50
2018-08-23T01:10:18.414Z,2.70
2018-08-23T01:12:57.975Z,2.80
2018-08-23T01:15:25.847Z,2.80
2018-08-23T01:18:11.087Z,2.30
2018-08-23T01:20:39.601Z,2.07
2018-08-23T01:23:07.241Z,2.80
2018-08-23T01:25:40.413Z,2.67
2018-08-23T01:28:08.447Z,2.37
2018-08-23T01:30:36.530Z,2.57
2018-08-23T01:33:04.649Z,2.77
2018-08-23T01:35:32.296Z,2.80
2018-08-23T01:37:59.941Z,2.67
2018-08-23T01:40:27.876Z,2.90
2018-08-23T01:42:55.459Z,2.30
2018-08-23T01:45:23.128Z,2.70
2018-08-23T01:47:55.857Z,2.97
2018-08-23T01:50:23.991Z,2.60
2018-08-23T01:52:53.549Z,2.60
2018-08-23T01:55:22.168Z,2.70
2018-08-23T01:57:50.261Z,2.90
2018-08-23T02:00:22.586Z,2.93
2018-08-23T02:02:50.210Z,2.80
2018-08-23T02:05:37.568Z,2.43
2018-08-23T02:08:44.069Z,2.47
2018-08-23T02:11:49.699Z,2.57
2018-08-23T02:14:30.280Z,2.40
2018-08-23T02:17:37.906Z,2.60
2018-08-23T02:20:28.228Z,2.63
2018-08-23T02:23:19.004Z,2.67
2018-08-23T02:25:47.942Z,2.70
2018-08-23T02:28:32.250Z,2.47
2018-08-23T02:31:15.672Z,2.30
2018-08-23T02:33:43.315Z,2.70
2018-08-23T02:36:17.966Z,2.50
2018-08-23T02:38:48.678Z,2.87
2018-08-23T02:41:16.610Z,2.10
2018-08-23T02:43:44.823Z,2.67
2018-08-23T02:46:12.492Z,2.77
2018-08-23T02:48:40.269Z,3.00
2018-08-23T02:51:08.138Z,2.63
2018-08-23T02:53:38.670Z,2.80
2018-08-23T02:56:10.322Z,2.47
2018-08-23T02:58:48.608Z,2.50
2018-08-23T03:01:16.521Z,2.83
2018-08-23T03:04:01.901Z,3.10
2018-08-23T03:06:33.849Z,2.70
2018-08-23T03:09:01.678Z,2.60
2018-08-23T03:11:29.253Z,2.50
2018-08-23T03:13:57.242Z,2.27
2018-08-23T03:16:25.205Z,2.37
2018-08-23T03:18:52.826Z,2.50
2018-08-23T03:21:20.587Z,2.50
2018-08-23T03:23:48.160Z,2.70
2018-08-23T03:26:15.721Z,3.07
2018-08-23T03:28:43.362Z,2.50
2018-08-23T03:31:10.924Z,2.77
2018-08-23T03:33:38.566Z,2.47
2018-08-23T03:36:06.466Z,2.90
2018-08-23T03:38:34.021Z,2.93
2018-08-23T03:41:01.580Z,2.77
2018-08-23T03:43:30.092Z,3.13
2018-08-23T03:45:58.549Z,2.97
2018-08-23T03:48:26.124Z,3.30
2018-08-23T03:50:53.797Z,3.30
2018-08-23T03:53:21.821Z,3.00
2018-08-23T03:56:06.397Z,3.20
2018-08-23T03:58:34.832Z,3.23
2018-08-23T04:01:03.744Z,3.10
2018-08-23T04:03:32.003Z,2.77
2018-08-23T04:06:22.232Z,3.10
2018-08-23T04:08:50.023Z,3.23
2018-08-23T04:11:18.138Z,2.70
2018-08-23T04:13:46.953Z,3.27
2018-08-23T04:16:21.580Z,3.30
2018-08-23T04:18:49.229Z,3.00
2018-08-23T04:21:16.850Z,3.10
2018-08-23T04:23:44.441Z,2.93
2018-08-23T04:26:12.284Z,3.20
2018-08-23T04:28:40.313Z,3.43
2018-08-23T04:31:07.912Z,3.17
2018-08-23T04:33:35.597Z,3.33
2018-08-23T04:36:03.231Z,3.57
2018-08-23T04:38:32.416Z,3.20
2018-08-23T04:41:03.940Z,3.77
2018-08-23T04:43:32.261Z,3.33
2018-08-23T04:46:02.431Z,3.37
2018-08-23T04:48:29.964Z,3.27
2018-08-23T04:50:57.689Z,3.37
2018-08-23T04:53:25.288Z,3.30
2018-08-23T04:55:53.127Z,3.57
2018-08-23T04:58:20.830Z,3.03
2018-08-23T05:00:48.408Z,3.30
2018-08-23T05:03:16.311Z,3.73
2018-08-23T05:05:43.883Z,3.60
2018-08-23T05:08:11.435Z,3.67
2018-08-23T05:10:39.225Z,3.47
2018-08-23T05:13:06.871Z,3.00
2018-08-23T05:15:34.497Z,3.80
2018-08-23T05:18:02.597Z,3.30
2018-08-23T05:20:30.484Z,3.60
2018-08-23T05:23:03.881Z,3.03
2018-08-23T05:25:31.477Z,3.37
2018-08-23T05:28:24.565Z,3.50
2018-08-23T05:30:52.186Z,3.50
2018-08-23T05:33:20.874Z,3.40
2018-08-23T05:35:48.977Z,3.57
2018-08-23T05:38:17.430Z,3.37
2018-08-23T05:40:48.684Z,3.20
2018-08-23T05:43:16.388Z,3.57
2018-08-23T05:46:02.270Z,2.93
2018-08-23T05:48:30.077Z,3.23
2018-08-23T05:51:07.332Z,2.77
2018-08-23T05:53:48.180Z,3.10
2018-08-23T05:56:18.117Z,2.53
2018-08-23T05:58:45.744Z,3.47
2018-08-23T06:01:13.450Z,2.53
2018-08-23T06:03:41.464Z,2.60
2018-08-23T06:06:09.106Z,3.30
2018-08-23T06:08:40.361Z,3.10
2018-08-23T06:11:09.303Z,2.90
2018-08-23T06:13:36.943Z,2.67
2018-08-23T06:16:04.597Z,2.93
2018-08-23T06:18:32.530Z,3.00
2018-08-23T06:21:00.189Z,3.30
2018-08-23T06:23:57.048Z,3.13
2018-08-23T06:26:44.709Z,2.63
2018-08-23T06:29:23.072Z,2.90
2018-08-23T06:31:59.347Z,2.60
2018-08-23T06:34:28.853Z,3.07
2018-08-23T06:36:56.490Z,2.30
2018-08-23T06:39:24.041Z,3.23
2018-08-23T06:41:55.045Z,2.57
2018-08-23T06:44:27.649Z,2.67
2018-08-23T06:46:55.409Z,2.50
2018-08-23T06:49:22.971Z,3.00
2018-08-23T06:52:02.665Z,2.67
2018-08-23T06:54:30.258Z,2.80
2018-08-23T06:56:57.929Z,2.40
2018-08-23T06:59:25.642Z,2.93
2018-08-23T07:01:53.218Z,2.80
2018-08-23T07:04:20.967Z,3.00
2018-08-23T07:06:48.606Z,2.37
2018-08-23T07:09:17.422Z,2.40
2018-08-23T07:11:45.479Z,2.43
2018-08-23T07:14:17.184Z,2.37
2018-08-23T07:16:46.620Z,2.33
2018-08-23T07:19:27.825Z,2.10
2018-08-23T07:21:56.185Z,2.03
2018-08-23T07:24:39.698Z,1.97
2018-08-23T07:27:08.836Z,2.20
2018-08-23T07:29:36.448Z,2.37
2018-08-23T07:32:06.593Z,2.57
2018-08-23T07:34:34.693Z,2.90
2018-08-23T07:37:06.230Z,2.20
2018-08-23T07:39:33.921Z,2.27
2018-08-23T07:42:01.603Z,2.60
2018-08-23T07:44:29.301Z,2.10
2018-08-23T07:46:56.860Z,2.37
2018-08-23T07:49:24.467Z,2.30
2018-08-23T07:51:52.516Z,2.47
2018-08-23T07:54:21.970Z,2.60
2018-08-23T07:56:49.544Z,2.40
2018-08-23T07:59:17.419Z,2.13
2018-08-23T08:01:44.963Z,2.20
2018-08-23T08:04:12.548Z,2.37
2018-08-23T08:06:40.233Z,2.20
2018-08-23T08:09:10.125Z,2.63
2018-08-23T08:11:51.451Z,2.07
2018-08-23T08:14:24.841Z,2.30
2018-08-23T08:16:54.461Z,2.07
2018-08-23T08:19:22.172Z,2.10
2018-08-23T08:21:49.700Z,2.23
2018-08-23T08:24:17.289Z,2.13
2018-08-23T08:26:45.146Z,2.17
2018-08-23T08:29:27.219Z,2.20
2018-08-23T08:31:55.118Z,2.00
2018-08-23T08:34:24.408Z,2.10
2018-08-23T08:36:51.986Z,2.03
2018-08-23T08:39:19.966Z,2.00
2018-08-23T08:41:47.492Z,1.87
2018-08-23T08:44:15.749Z,2.37
2018-08-23T08:46:43.456Z,2.13
2018-08-23T08:49:11.218Z,2.30
2018-08-23T08:51:38.797Z,2.33
2018-08-23T08:54:06.394Z,2.07
2018-08-23T08:56:39.935Z,2.33
2018-08-23T08:59:07.567Z,2.03
2018-08-23T09:01:35.389Z,2.17
2018-08-23T09:04:03.048Z,2.23
2018-08-23T09:06:36.296Z,2.00
2018-08-23T09:09:25.237Z,2.13
2018-08-23T09:11:52.792Z,2.33
2018-08-23T09:14:20.505Z,2.10
2018-08-23T09:16:48.333Z,2.13
2018-08-23T09:19:15.955Z,1.90
2018-08-23T09:21:49.967Z,1.90
2018-08-23T09:24:26.194Z,2.37
2018-08-23T09:26:54.542Z,1.77
2018-08-23T09:29:35.157Z,1.80
2018-08-23T09:32:16.054Z,2.07
2018-08-23T09:34:43.846Z,2.27
2018-08-23T09:37:11.427Z,2.33
2018-08-23T09:39:39.807Z,1.90
2018-08-23T09:42:07.637Z,2.10
2018-08-23T09:44:55.634Z,2.20
2018-08-23T09:47:23.181Z,1.90
2018-08-23T09:49:50.691Z,2.00
2018-08-23T09:52:21.368Z,1.80
2018-08-23T09:54:48.819Z,1.93
2018-08-23T09:57:16.355Z,1.97
2018-08-23T09:59:45.604Z,1.93
2018-08-23T10:02:19.090Z,1.97
2018-08-23T10:04:52.789Z,1.83
2018-08-23T10:07:26.149Z,1.80
2018-08-23T10:09:59.672Z,2.00
2018-08-23T10:12:32.902Z,2.00
2018-08-23T10:15:06.327Z,2.00
2018-08-23T10:17:39.685Z,2.00
2018-08-23T10:20:13.166Z,1.70
2018-08-23T10:22:50.511Z,2.00
2018-08-23T10:25:36.256Z,1.60
2018-08-23T10:28:05.525Z,1.80
2018-08-23T10:30:33.050Z,1.63
2018-08-23T10:33:00.646Z,1.60
2018-08-23T10:35:28.456Z,1.67
2018-08-23T10:37:56.045Z,1.40
2018-08-23T10:40:23.889Z,1.90
2018-08-23T10:42:51.661Z,2.00
2018-08-23T10:45:19.526Z,1.70
2018-08-23T10:47:53.033Z,1.73
2018-08-23T10:50:20.903Z,1.70
2018-08-23T10:52:48.488Z,1.67
2018-08-23T10:55:16.328Z,1.53
2018-08-23T10:57:43.698Z,1.77
2018-08-23T11:00:11.280Z,1.50
2018-08-23T11:02:38.827Z,2.10
2018-08-23T11:05:06.441Z,1.87
2018-08-23T11:07:39.756Z,1.70
2018-08-23T11:10:13.156Z,1.60
2018-08-23T11:12:46.695Z,1.73
2018-08-23T11:15:20.196Z,1.60
2018-08-23T11:17:53.675Z,1.60
2018-08-23T11:20:26.227Z,1.47
2018-08-23T11:22:54.137Z,1.57
2018-08-23T11:25:22.929Z,1.67
2018-08-23T11:27:50.783Z,1.50
2018-08-23T11:30:19.046Z,1.50
2018-08-23T11:32:46.957Z,1.60
2018-08-23T11:35:14.650Z,1.47
2018-08-23T11:37:42.176Z,1.70
2018-08-23T11:40:09.850Z,1.60
2018-08-23T11:42:37.463Z,1.53
2018-08-23T11:45:05.389Z,1.80
2018-08-23T11:47:32.929Z,1.60
2018-08-23T11:50:00.495Z,1.40
2018-08-23T11:52:28.085Z,1.37
2018-08-23T11:54:55.641Z,1.73
2018-08-23T11:57:23.441Z,1.60
2018-08-23T11:59:51.005Z,1.27
2018-08-23T12:02:18.965Z,1.40
2018-08-23T12:04:46.557Z,1.47
2018-08-23T12:07:14.166Z,1.77
2018-08-23T12:09:42.049Z,1.43
2018-08-23T12:12:09.785Z,1.27
2018-08-23T12:14:37.077Z,1.20
2018-08-23T12:17:05.128Z,1.40
2018-08-23T12:19:32.736Z,1.30
2018-08-23T12:22:00.277Z,1.53
2018-08-23T12:24:28.021Z,1.30
2018-08-23T12:26:56.091Z,1.50
2018-08-23T12:29:23.654Z,1.37
2018-08-23T12:31:54.026Z,1.40
2018-08-23T12:34:31.589Z,1.33
2018-08-23T12:37:05.510Z,1.60
2018-08-23T12:39:38.769Z,1.20
2018-08-23T12:42:12.185Z,1.50
2018-08-23T12:44:45.453Z,1.37
2018-08-23T12:47:13.222Z,1.27
2018-08-23T12:49:44.182Z,1.50
2018-08-23T12:52:11.725Z,1.30
2018-08-23T12:54:39.499Z,1.47
2018-08-23T12:57:07.105Z,1.33
2018-08-23T12:59:34.949Z,1.23
2018-08-23T13:02:02.673Z,1.33
2018-08-23T13:04:30.201Z,1.57
2018-08-23T13:06:57.772Z,1.40
2018-08-23T13:09:25.647Z,1.60
2018-08-23T13:11:53.201Z,1.20
2018-08-23T13:14:20.814Z,1.60
2018-08-23T13:16:48.696Z,1.53
2018-08-23T13:19:16.649Z,1.40
2018-08-23T13:21:44.691Z,1.37
2018-08-23T13:24:12.538Z,1.33
2018-08-23T13:26:44.084Z,1.40
2018-08-23T13:29:12.266Z,1.50
2018-08-23T13:31:39.824Z,1.20
2018-08-23T13:34:07.449Z,1.40
2018-08-23T13:36:35.439Z,1.27
2018-08-23T13:39:04.756Z,1.40
2018-08-23T13:41:32.657Z,1.40
2018-08-23T13:44:00.297Z,1.60
2018-08-23T13:46:27.829Z,1.37
2018-08-23T13:48:55.956Z,1.10
2018-08-23T13:51:23.685Z,1.40
2018-08-23T13:53:51.382Z,1.43
2018-08-23T13:56:19.208Z,1.60
2018-08-23T13:58:46.818Z,1.53
2018-08-23T14:01:14.942Z,1.53
2018-08-23T14:03:42.855Z,2.00
2018-08-23T14:06:10.558Z,2.00
2018-08-23T14:08:38.376Z,1.93
2018-08-23T14:11:05.993Z,2.00
2018-08-23T14:13:33.556Z,2.10
2018-08-23T14:16:04.626Z,1.70
2018-08-23T14:18:33.535Z,2.13
2018-08-23T14:21:01.109Z,1.90
2018-08-23T14:23:28.707Z,1.80
2018-08-23T14:25:56.297Z,1.90
2018-08-23T14:28:23.936Z,1.87
2018-08-23T14:30:52.105Z,1.87
2018-08-23T14:33:20.331Z,1.70
2018-08-23T14:35:47.898Z,1.77
2018-08-23T14:38:15.797Z,1.90
2018-08-23T14:40:43.348Z,1.90
2018-08-23T14:43:11.609Z,2.20
2018-08-23T14:45:39.262Z,1.80
2018-08-23T14:48:14.405Z,2.10
2018-08-23T14:50:42.175Z,2.00
2018-08-23T14:53:09.782Z,2.03
2018-08-23T14:55:43.273Z,1.87
2018-08-23T14:58:11.161Z,1.80
2018-08-23T15:00:38.751Z,1.70
2018-08-23T15:03:06.522Z,1.87
2018-08-23T15:05:34.103Z,1.77
2018-08-23T15:08:01.751Z,1.60
2018-08-23T15:10:43.339Z,1.73
2018-08-23T15:13:27.536Z,1.83
2018-08-23T15:16:33.832Z,1.97
2018-08-23T15:19:01.633Z,2.13
2018-08-23T15:21:29.493Z,2.00
2018-08-23T15:23:57.499Z,1.67
2018-08-23T15:26:25.310Z,1.73
2018-08-23T15:28:53.370Z,1.60
2018-08-23T15:31:21.619Z,1.60
2018-08-23T15:33:50.083Z,1.53
2018-08-23T15:36:17.775Z,1.90
2018-08-23T15:38:45.522Z,1.87
2018-08-23T15:41:13.400Z,1.70
2018-08-23T15:43:41.511Z,1.47
2018-08-23T15:46:09.309Z,1.53
2018-08-23T15:48:36.965Z,1.47
2018-08-23T15:51:04.868Z,1.60
2018-08-23T15:53:32.468Z,2.10
2018-08-23T15:56:00.231Z,1.83
2018-08-23T15:58:28.138Z,2.50
2018-08-23T16:00:55.820Z,2.37
2018-08-23T16:03:23.489Z,2.10
2018-08-23T16:05:51.383Z,2.23
2018-08-23T16:08:18.962Z,2.30
2018-08-23T16:10:46.776Z,2.10
2018-08-23T16:13:14.873Z,2.17
2018-08-23T16:15:42.704Z,1.63
2018-08-23T16:18:16.429Z,1.93
2018-08-23T16:20:51.498Z,2.30
2018-08-23T16:23:20.101Z,1.83
2018-08-23T16:25:47.857Z,1.70
2018-08-23T16:28:15.585Z,1.93
2018-08-23T16:30:43.989Z,1.80
2018-08-23T16:33:12.297Z,2.00
2018-08-23T16:35:40.470Z,1.93
2018-08-23T16:38:08.689Z,1.63
2018-08-23T16:40:36.297Z,1.90
2018-08-23T16:43:04.205Z,1.90
2018-08-23T16:45:31.981Z,1.80
2018-08-23T16:47:59.614Z,2.13
2018-08-23T16:50:28.048Z,2.10
2018-08-23T16:52:55.982Z,2.07
2018-08-23T16:55:23.633Z,1.77
2018-08-23T16:57:51.329Z,2.00
2018-08-23T17:00:19.318Z,1.47
2018-08-23T17:02:46.883Z,1.80
2018-08-23T17:05:14.645Z,2.20
2018-08-23T17:07:42.533Z,1.63
2018-08-23T17:10:09.791Z,1.80
2018-08-23T17:12:37.404Z,1.83
2018-08-23T17:15:06.348Z,2.20
2018-08-23T17:17:35.034Z,1.90
2018-08-23T17:20:02.648Z,1.87
2018-08-23T17:22:30.600Z,2.00
2018-08-23T17:24:58.579Z,2.23
2018-08-23T17:27:32.985Z,2.17
2018-08-23T17:30:02.609Z,2.43
2018-08-23T17:32:30.259Z,2.23
2018-08-23T17:34:57.917Z,2.50
2018-08-23T17:37:25.617Z,2.27
2018-08-23T17:39:53.333Z,2.40
2018-08-23T17:42:25.842Z,1.90
2018-08-23T17:44:53.419Z,2.33
2018-08-23T17:47:20.999Z,2.17
2018-08-23T17:49:49.338Z,2.20
2018-08-23T17:52:16.993Z,2.37
2018-08-23T17:54:44.724Z,2.27
2018-08-23T17:57:12.693Z,2.40
2018-08-23T17:59:40.485Z,2.17
2018-08-23T18:02:08.220Z,2.00
2018-08-23T18:04:36.659Z,2.07
2018-08-23T18:07:04.723Z,2.00
2018-08-23T18:09:32.453Z,2.13
2018-08-23T18:12:01.072Z,2.30
2018-08-23T18:14:29.133Z,2.30
2018-08-23T18:16:57.951Z,1.90
2018-08-23T18:19:26.190Z,2.17
2018-08-23T18:21:53.903Z,1.93
2018-08-23T18:24:21.718Z,2.17
2018-08-23T18:26:50.431Z,2.37
2018-08-23T18:29:18.102Z,2.03
2018-08-23T18:31:45.816Z,1.80
2018-08-23T18:34:14.004Z,1.90
2018-08-23T18:36:41.701Z,1.83
2018-08-23T18:39:10.607Z,1.90
2018-08-23T18:41:38.880Z,1.67
2018-08-23T18:44:06.669Z,1.80
2018-08-23T18:46:34.895Z,2.30
2018-08-23T18:49:03.030Z,1.67
2018-08-23T18:51:31.215Z,2.10
2018-08-23T18:53:59.921Z,2.17
2018-08-23T18:56:28.622Z,1.80
2018-08-23T18:58:57.320Z,1.97
2018-08-23T19:01:25.286Z,2.07
2018-08-23T19:03:53.179Z,1.90
2018-08-23T19:06:25.526Z,1.87
2018-08-23T19:08:54.698Z,1.90
2018-08-23T19:11:22.809Z,2.13
2018-08-23T19:13:50.418Z,2.10
2018-08-23T19:16:23.940Z,1.80
2018-08-23T19:18:51.868Z,1.80
2018-08-23T19:21:19.698Z,1.80
2018-08-23T19:23:47.605Z,2.20
2018-08-23T19:26:15.582Z,2.13
2018-08-23T19:28:43.452Z,2.27
2018-08-23T19:31:11.117Z,1.80
2018-08-23T19:33:38.808Z,1.77
2018-08-23T19:36:06.833Z,1.80
2018-08-23T19:38:34.919Z,1.90
2018-08-23T19:41:02.613Z,1.70
2018-08-23T19:43:30.313Z,1.90
2018-08-23T19:46:03.930Z,1.70
2018-08-23T19:48:31.798Z,2.10
2018-08-23T19:50:59.512Z,2.00
2018-08-23T19:53:27.538Z,1.80
2018-08-23T19:55:55.233Z,1.90
2018-08-23T19:58:23.070Z,1.70
2018-08-23T20:00:50.838Z,2.07
2018-08-23T20:03:18.533Z,1.90
2018-08-23T20:05:46.398Z,2.10
2018-08-23T20:08:14.232Z,1.93
2018-08-23T20:10:41.914Z,2.00
2018-08-23T20:13:10.138Z,1.97
2018-08-23T20:15:37.780Z,2.03
2018-08-23T20:18:05.566Z,1.90
2018-08-23T20:20:33.361Z,2.10
2018-08-23T20:23:01.017Z,2.23
2018-08-23T20:25:28.949Z,1.93
2018-08-23T20:27:58.099Z,2.03
2018-08-23T20:30:25.762Z,1.93
2018-08-23T20:32:53.339Z,1.90
2018-08-23T20:35:21.524Z,1.90
2018-08-23T20:37:49.366Z,2.17
2018-08-23T20:40:17.277Z,2.00
2018-08-23T20:42:45.276Z,1.57
2018-08-23T20:45:13.461Z,1.67
2018-08-23T20:47:42.836Z,2.00
2018-08-23T20:50:10.537Z,2.03
2018-08-23T20:52:39.258Z,1.97
2018-08-23T20:55:07.251Z,1.83
2018-08-23T20:57:34.845Z,2.23
2018-08-23T21:00:03.005Z,1.80
2018-08-23T21:02:30.758Z,1.80
2018-08-23T21:04:58.361Z,1.83
2018-08-23T21:07:26.229Z,1.67
2018-08-23T21:09:54.008Z,1.70
2018-08-23T21:12:21.596Z,1.90
2018-08-23T21:14:49.299Z,1.73
2018-08-23T21:17:16.710Z,2.00
2018-08-23T21:19:44.249Z,2.00
2018-08-23T21:22:11.896Z,2.10
2018-08-23T21:24:39.493Z,2.10
2018-08-23T21:27:07.060Z,2.17
2018-08-23T21:29:35.214Z,2.53
2018-08-23T21:32:02.848Z,2.60
2018-08-23T21:34:34.893Z,2.53
2018-08-23T21:37:17.495Z,2.70
2018-08-23T21:39:52.611Z,2.87
2018-08-23T21:42:21.972Z,2.37
2018-08-23T21:44:59.433Z,2.37
2018-08-23T21:47:27.416Z,2.23
2018-08-23T21:49:56.042Z,2.37
2018-08-23T21:52:50.465Z,2.27
2018-08-23T21:55:18.595Z,2.40
2018-08-23T21:57:46.172Z,2.50
2018-08-23T22:00:14.147Z,2.40
2018-08-23T22:02:41.750Z,2.80
2018-08-23T22:05:09.336Z,2.50
2018-08-23T22:07:37.141Z,2.23
2018-08-23T22:10:04.836Z,2.37
2018-08-23T22:12:32.297Z,2.13
2018-08-23T22:15:00.077Z,2.10
2018-08-23T22:17:27.605Z,1.93
2018-08-23T22:19:55.200Z,1.80
2018-08-23T22:22:23.245Z,2.20
2018-08-23T22:24:50.772Z,2.07
2018-08-23T22:27:18.409Z,2.17
2018-08-23T22:29:46.210Z,1.90
2018-08-23T22:32:14.117Z,1.90
2018-08-23T22:34:41.736Z,1.97
2018-08-23T22:37:09.517Z,1.90
2018-08-23T22:39:37.226Z,1.90
2018-08-23T22:42:04.720Z,2.13
2018-08-23T22:44:32.365Z,1.87
2018-08-23T22:46:59.994Z,2.00
2018-08-23T22:49:27.584Z,2.00
2018-08-23T22:51:55.264Z,2.00
2018-08-23T22:54:22.947Z,2.00
2018-08-23T22:56:51.008Z,2.00
2018-08-23T22:59:18.750Z,2.37
2018-08-23T23:01:46.299Z,1.90
2018-08-23T23:04:19.703Z,1.90
2018-08-23T23:06:47.256Z,2.17
2018-08-23T23:09:14.833Z,2.07
2018-08-23T23:11:43.202Z,1.97
2018-08-23T23:14:10.705Z,2.47
2018-08-23T23:16:39.259Z,2.10
2018-08-23T23:19:07.188Z,2.30
2018-08-23T23:21:34.809Z,2.20
2018-08-23T23:24:02.542Z,2.13
2018-08-23T23:26:30.184Z,2.00
2018-08-23T23:28:57.837Z,2.40
2018-08-23T23:31:25.513Z,2.00
2018-08-23T23:33:53.453Z,2.00
2018-08-23T23:36:21.246Z,2.43
2018-08-23T23:38:49.149Z,2.33
2018-08-23T23:41:17.464Z,2.50
2018-08-23T23:43:52.290Z,2.27
2018-08-23T23:46:20.589Z,2.10
2018-08-23T23:48:48.193Z,2.30
2018-08-23T23:51:15.939Z,2.47
2018-08-23T23:53:43.513Z,2.03
2018-08-23T23:56:11.297Z,2.40
2018-08-23T23:58:38.892Z,2.00
